createdAt,value
2022-10-21T00:00:51.099Z,88.40
2022-10-21T00:03:18.822Z,88.80
2022-10-21T00:05:46.036Z,88.80
2022-10-21T00:08:13.125Z,88.90
2022-10-21T00:10:39.987Z,88.90
2022-10-21T00:13:07.381Z,88.90
2022-10-21T00:15:34.356Z,89.50
2022-10-21T00:18:01.265Z,90.00
2022-10-21T00:20:28.120Z,90.20
2022-10-21T00:22:55.013Z,90.40
2022-10-21T00:25:21.877Z,90.50
2022-10-21T00:27:48.768Z,90.70
2022-10-21T00:30:15.673Z,90.90
2022-10-21T00:32:42.693Z,90.90
2022-10-21T00:35:09.654Z,91.10
2022-10-21T00:37:36.776Z,91.30
2022-10-21T00:40:04.657Z,91.30
2022-10-21T00:42:37.839Z,91.70
2022-10-21T00:45:06.484Z,91.60
2022-10-21T00:47:45.501Z,91.70
2022-10-21T00:50:41.680Z,91.90
2022-10-21T00:53:14.492Z,92.20
2022-10-21T00:55:49.964Z,92.20
2022-10-21T00:58:21.455Z,92.10
2022-10-21T01:00:50.376Z,92.10
2022-10-21T01:03:17.375Z,92.10
2022-10-21T01:05:45.292Z,92.20
2022-10-21T01:08:12.285Z,92.30
2022-10-21T01:10:39.261Z,92.40
2022-10-21T01:13:48.117Z,92.20
2022-10-21T01:16:50.763Z,92.80
2022-10-21T01:20:27.059Z,92.50
2022-10-21T01:23:38.539Z,92.80
2022-10-21T01:26:57.795Z,93.00
2022-10-21T01:30:13.741Z,92.80
2022-10-21T01:33:17.086Z,93.20
2022-10-21T01:36:05.197Z,93.20
2022-10-21T01:38:48.294Z,93.60
2022-10-21T01:41:38.257Z,93.60
2022-10-21T01:44:28.768Z,93.30
2022-10-21T01:47:12.895Z,93.40
2022-10-21T01:49:48.049Z,93.50
2022-10-21T01:52:16.177Z,93.40
2022-10-21T01:54:55.422Z,93.40
2022-10-21T01:57:26.584Z,93.50
2022-10-21T01:59:54.858Z,93.50
2022-10-21T02:02:22.793Z,93.50
2022-10-21T02:04:51.734Z,93.50
2022-10-21T02:07:18.659Z,93.50
2022-10-21T02:09:45.529Z,93.50
2022-10-21T02:12:13.027Z,93.50
2022-10-21T02:14:46.369Z,93.50
2022-10-21T02:17:18.669Z,93.50
2022-10-21T02:19:47.411Z,93.50
2022-10-21T02:22:20.417Z,93.60
2022-10-21T02:25:09.645Z,93.50
2022-10-21T02:27:36.692Z,93.50
2022-10-21T02:30:04.376Z,93.40
2022-10-21T02:32:55.079Z,93.30
2022-10-21T02:35:42.608Z,93.30
2022-10-21T02:38:27.820Z,93.20
2022-10-21T02:41:09.538Z,93.20
2022-10-21T02:43:41.578Z,93.20
2022-10-21T02:46:13.984Z,93.20
2022-10-21T02:48:46.151Z,93.20
2022-10-21T02:51:13.777Z,93.10
2022-10-21T02:53:41.754Z,93.10
2022-10-21T02:56:08.684Z,93.10
2022-10-21T02:58:35.559Z,93.00
2022-10-21T03:01:02.476Z,93.00
2022-10-21T03:03:29.920Z,93.00
2022-10-21T03:05:57.836Z,92.90
2022-10-21T03:08:24.824Z,93.10
2022-10-21T03:10:53.272Z,93.10
2022-10-21T03:13:22.301Z,93.10
2022-10-21T03:15:50.115Z,93.20
2022-10-21T03:18:17.386Z,93.20
2022-10-21T03:20:44.416Z,93.20
2022-10-21T03:23:11.285Z,93.20
2022-10-21T03:25:38.160Z,93.20
2022-10-21T03:28:05.163Z,93.20
2022-10-21T03:30:32.169Z,93.20
2022-10-21T03:32:59.036Z,93.20
2022-10-21T03:35:25.976Z,93.20
2022-10-21T03:37:52.909Z,93.30
2022-10-21T03:40:19.877Z,93.20
2022-10-21T03:42:46.889Z,93.30
2022-10-21T03:45:13.751Z,93.30
2022-10-21T03:47:40.645Z,93.20
2022-10-21T03:50:11.900Z,93.20
2022-10-21T03:52:41.192Z,93.20
2022-10-21T03:55:08.413Z,93.30
2022-10-21T03:57:35.294Z,93.30
2022-10-21T04:00:02.304Z,93.40
2022-10-21T04:02:40.074Z,93.50
2022-10-21T04:05:07.859Z,93.70
2022-10-21T04:07:34.807Z,93.80
2022-10-21T04:10:01.685Z,93.80
2022-10-21T04:12:28.572Z,93.80
2022-10-21T04:14:55.439Z,93.80
2022-10-21T04:17:22.324Z,93.80
2022-10-21T04:19:49.198Z,93.70
2022-10-21T04:22:16.089Z,93.70
2022-10-21T04:24:42.997Z,93.70
2022-10-21T04:27:09.869Z,93.80
2022-10-21T04:29:36.733Z,93.80
2022-10-21T04:32:03.706Z,93.80
2022-10-21T04:34:30.666Z,93.80
2022-10-21T04:37:01.069Z,93.80
2022-10-21T04:39:31.103Z,93.90
2022-10-21T04:41:58.772Z,94.10
2022-10-21T04:44:25.727Z,94.30
2022-10-21T04:46:52.592Z,94.30
2022-10-21T04:49:19.554Z,94.50
2022-10-21T04:51:46.408Z,94.80
2022-10-21T04:54:13.620Z,94.40
2022-10-21T04:56:41.669Z,94.40
2022-10-21T04:59:08.568Z,94.30
2022-10-21T05:01:35.605Z,94.30
2022-10-21T05:04:02.486Z,94.10
2022-10-21T05:06:29.417Z,94.10
2022-10-21T05:08:56.334Z,94.00
2022-10-21T05:11:23.358Z,94.00
2022-10-21T05:13:50.230Z,93.90
2022-10-21T05:16:17.202Z,93.90
2022-10-21T05:18:44.076Z,93.90
2022-10-21T05:21:10.963Z,93.80
2022-10-21T05:23:37.832Z,93.90
2022-10-21T05:26:04.875Z,93.90
2022-10-21T05:28:31.739Z,93.90
2022-10-21T05:30:58.644Z,94.00
2022-10-21T05:33:25.521Z,94.00
2022-10-21T05:36:05.140Z,94.10
2022-10-21T05:38:32.044Z,94.10
2022-10-21T05:40:59.419Z,94.00
2022-10-21T05:43:27.882Z,94.00
2022-10-21T05:45:54.773Z,94.00
2022-10-21T05:48:21.746Z,93.90
2022-10-21T05:50:52.665Z,93.80
2022-10-21T05:53:19.738Z,93.80
2022-10-21T05:55:54.748Z,93.60
2022-10-21T05:58:21.995Z,93.60
2022-10-21T06:00:49.830Z,93.50
2022-10-21T06:03:16.677Z,93.80
2022-10-21T06:05:43.534Z,93.40
2022-10-21T06:08:10.390Z,93.40
2022-10-21T06:10:37.237Z,93.40
2022-10-21T06:13:04.080Z,93.40
2022-10-21T06:15:30.955Z,93.40
2022-10-21T06:17:57.859Z,93.40
2022-10-21T06:20:24.747Z,93.50
2022-10-21T06:22:51.616Z,93.50
2022-10-21T06:25:18.503Z,93.50
2022-10-21T06:27:45.365Z,93.60
2022-10-21T06:30:12.256Z,93.70
2022-10-21T06:32:39.157Z,93.70
2022-10-21T06:35:06.127Z,93.80
2022-10-21T06:37:33.015Z,93.90
2022-10-21T06:39:59.888Z,93.90
2022-10-21T06:42:26.755Z,94.00
2022-10-21T06:44:55.558Z,94.10
2022-10-21T06:47:24.869Z,94.10
2022-10-21T06:49:51.763Z,94.20
2022-10-21T06:52:18.737Z,94.30
2022-10-21T06:54:45.724Z,94.20
2022-10-21T06:57:12.599Z,94.20
2022-10-21T06:59:39.475Z,94.20
2022-10-21T07:02:06.923Z,94.30
2022-10-21T07:04:33.866Z,94.30
2022-10-21T07:07:00.728Z,94.40
2022-10-21T07:09:27.692Z,94.40
2022-10-21T07:11:54.584Z,94.40
2022-10-21T07:14:21.470Z,94.30
2022-10-21T07:16:49.091Z,94.40
2022-10-21T07:19:15.982Z,94.40
2022-10-21T07:21:42.903Z,94.50
2022-10-21T07:24:10.200Z,94.40
2022-10-21T07:26:37.064Z,94.30
2022-10-21T07:29:04.581Z,94.20
2022-10-21T07:31:35.322Z,94.20
2022-10-21T07:36:35.577Z,94.20
2022-10-21T07:39:07.423Z,94.30
2022-10-21T07:41:39.658Z,94.20
2022-10-21T07:44:07.259Z,94.30
2022-10-21T07:46:35.198Z,94.50
2022-10-21T07:49:02.075Z,94.20
2022-10-21T07:51:31.306Z,94.20
2022-10-21T07:54:00.921Z,94.10
2022-10-21T07:56:35.886Z,94.10
2022-10-21T07:59:07.752Z,94.10
2022-10-21T08:01:36.384Z,94.00
2022-10-21T08:04:03.613Z,94.00
2022-10-21T08:06:30.572Z,94.00
2022-10-21T08:08:57.694Z,94.10
2022-10-21T08:11:30.681Z,94.10
2022-10-21T08:13:58.559Z,93.80
2022-10-21T08:16:26.998Z,93.80
2022-10-21T08:18:54.776Z,93.70
2022-10-21T08:21:21.685Z,94.10
2022-10-21T08:23:48.560Z,93.70
2022-10-21T08:26:16.754Z,93.60
2022-10-21T08:28:44.684Z,93.80
2022-10-21T08:31:17.535Z,93.70
2022-10-21T08:33:45.492Z,93.50
2022-10-21T08:36:20.245Z,93.60
2022-10-21T08:38:48.340Z,93.50
2022-10-21T08:41:30.352Z,93.00
2022-10-21T08:44:05.499Z,92.80
2022-10-21T08:46:39.537Z,92.50
2022-10-21T08:49:21.729Z,92.40
2022-10-21T08:52:00.356Z,92.30
2022-10-21T08:54:48.446Z,92.40
2022-10-21T08:57:15.707Z,92.30
2022-10-21T08:59:42.999Z,92.30
2022-10-21T09:02:12.812Z,92.30
2022-10-21T09:05:21.499Z,92.40
2022-10-21T09:08:00.675Z,92.30
2022-10-21T09:10:42.503Z,92.40
2022-10-21T09:13:22.805Z,92.00
2022-10-21T09:16:10.280Z,91.60
2022-10-21T09:19:14.011Z,91.50
2022-10-21T09:22:35.231Z,91.60
2022-10-21T09:25:30.991Z,91.30
2022-10-21T09:27:58.914Z,91.40
2022-10-21T09:30:26.543Z,91.50
2022-10-21T09:32:59.747Z,91.70
2022-10-21T09:35:48.223Z,91.60
2022-10-21T09:38:30.073Z,91.50
2022-10-21T09:41:03.194Z,91.60
2022-10-21T09:43:31.092Z,91.70
2022-10-21T09:45:58.380Z,91.80
2022-10-21T09:48:54.044Z,91.50
2022-10-21T09:51:40.067Z,91.40
2022-10-21T09:54:20.726Z,91.60
2022-10-21T09:56:58.389Z,91.40
2022-10-21T09:59:29.196Z,91.30
2022-10-21T10:02:08.152Z,91.10
2022-10-21T10:04:36.096Z,91.20
2022-10-21T10:07:31.263Z,91.20
2022-10-21T10:09:58.141Z,91.10
2022-10-21T10:12:28.230Z,90.90
2022-10-21T10:14:55.735Z,90.90
2022-10-21T10:17:39.818Z,90.90
2022-10-21T10:20:23.355Z,91.00
2022-10-21T10:22:59.109Z,90.70
2022-10-21T10:25:32.216Z,90.80
2022-10-21T10:28:22.615Z,90.80
2022-10-21T10:30:54.279Z,90.60
2022-10-21T10:33:31.696Z,90.90
2022-10-21T10:36:09.294Z,90.90
2022-10-21T10:38:42.267Z,91.00
2022-10-21T10:41:15.859Z,90.80
2022-10-21T10:43:54.347Z,90.50
2022-10-21T10:46:34.833Z,90.40
2022-10-21T10:49:27.379Z,90.50
2022-10-21T10:52:16.878Z,90.50
2022-10-21T10:54:44.196Z,90.70
2022-10-21T10:57:39.162Z,90.50
2022-10-21T11:00:24.137Z,90.50
2022-10-21T11:03:14.836Z,90.40
2022-10-21T11:05:49.632Z,90.50
2022-10-21T11:08:33.956Z,90.70
2022-10-21T11:11:06.298Z,90.70
2022-10-21T11:13:41.809Z,90.80
2022-10-21T11:16:45.186Z,90.80
2022-10-21T11:19:30.092Z,90.80
2022-10-21T11:22:06.701Z,90.90
2022-10-21T11:25:27.730Z,90.90
2022-10-21T11:28:12.802Z,91.10
2022-10-21T11:31:18.958Z,90.90
2022-10-21T11:34:13.365Z,91.00
2022-10-21T11:37:05.616Z,90.90
2022-10-21T11:39:44.320Z,90.90
2022-10-21T11:42:23.233Z,90.80
2022-10-21T11:45:17.077Z,90.80
2022-10-21T11:48:16.199Z,90.80
2022-10-21T11:51:25.387Z,90.70
2022-10-21T11:54:20.659Z,90.60
2022-10-21T11:57:17.656Z,90.60
2022-10-21T12:00:10.962Z,90.50
2022-10-21T12:03:01.655Z,90.60
2022-10-21T12:05:38.626Z,90.50
2022-10-21T12:08:28.514Z,90.40
2022-10-21T12:11:15.592Z,90.20
2022-10-21T12:14:09.472Z,90.20
2022-10-21T12:16:36.441Z,90.00
2022-10-21T12:19:07.023Z,89.80
2022-10-21T12:21:39.641Z,89.80
2022-10-21T12:24:40.296Z,89.70
2022-10-21T12:27:25.257Z,89.40
2022-10-21T12:30:13.291Z,89.50
2022-10-21T12:33:39.173Z,89.80
2022-10-21T12:36:18.399Z,89.90
2022-10-21T12:38:56.474Z,89.90
2022-10-21T12:41:34.409Z,90.00
2022-10-21T12:44:03.751Z,89.70
2022-10-21T12:46:40.583Z,89.50
2022-10-21T12:49:19.956Z,89.70
2022-10-21T12:51:51.709Z,89.70
2022-10-21T12:54:26.697Z,89.40
2022-10-21T12:57:00.875Z,89.30
2022-10-21T12:59:34.458Z,89.20
2022-10-21T13:02:07.953Z,89.00
2022-10-21T13:04:34.728Z,89.10
2022-10-21T13:07:16.689Z,89.10
2022-10-21T13:10:06.031Z,89.30
2022-10-21T13:12:33.809Z,88.80
2022-10-21T13:15:20.543Z,89.10
2022-10-21T13:17:54.538Z,89.20
2022-10-21T13:20:21.465Z,89.30
2022-10-21T13:23:01.755Z,89.10
2022-10-21T13:25:35.395Z,89.50
2022-10-21T13:28:18.549Z,89.90
2022-10-21T13:30:48.077Z,89.50
2022-10-21T13:33:24.689Z,89.60
2022-10-21T13:36:02.244Z,89.70
2022-10-21T13:38:32.092Z,89.40
2022-10-21T13:41:30.938Z,89.60
2022-10-21T13:44:20.031Z,89.30
2022-10-21T13:46:46.905Z,89.30
2022-10-21T13:49:33.576Z,89.10
2022-10-21T13:52:00.456Z,88.90
2022-10-21T13:54:34.636Z,89.20
2022-10-21T13:57:09.432Z,89.30
2022-10-21T13:59:36.304Z,89.20
2022-10-21T14:02:05.067Z,89.20
2022-10-21T14:04:33.917Z,89.30
2022-10-21T14:07:05.866Z,89.20
2022-10-21T14:09:34.325Z,89.10
2022-10-21T14:12:06.930Z,89.20
2022-10-21T14:14:38.145Z,89.50
2022-10-21T14:17:22.036Z,89.50
2022-10-21T14:19:59.471Z,89.40
2022-10-21T14:22:29.141Z,89.10
2022-10-21T14:25:00.399Z,89.00
2022-10-21T14:27:31.407Z,89.20
2022-10-21T14:30:01.646Z,89.50
2022-10-21T14:32:29.027Z,89.40
2022-10-21T14:35:11.214Z,89.70
2022-10-21T14:37:49.236Z,89.60
2022-10-21T14:40:32.626Z,89.90
2022-10-21T14:43:04.204Z,89.80
2022-10-21T14:45:38.652Z,89.80
2022-10-21T14:48:20.627Z,89.90
2022-10-21T14:50:55.283Z,89.90
2022-10-21T14:53:24.107Z,89.90
2022-10-21T14:55:57.472Z,90.00
2022-10-21T14:58:37.896Z,90.00
2022-10-21T15:01:18.403Z,90.00
2022-10-21T15:03:54.792Z,89.90
2022-10-21T15:06:37.098Z,89.90
2022-10-21T15:09:10.155Z,89.90
2022-10-21T15:11:46.217Z,90.00
2022-10-21T15:14:13.064Z,89.90
2022-10-21T15:16:53.511Z,89.90
2022-10-21T15:19:27.963Z,90.30
2022-10-21T15:22:01.964Z,90.00
2022-10-21T15:24:43.200Z,90.10
2022-10-21T15:27:42.296Z,90.10
2022-10-21T15:30:19.099Z,90.20
2022-10-21T15:32:47.149Z,90.20
2022-10-21T15:35:18.046Z,90.10
2022-10-21T15:37:51.687Z,90.20
2022-10-21T15:40:20.656Z,90.20
2022-10-21T15:42:48.433Z,90.20
2022-10-21T15:45:22.931Z,90.30
2022-10-21T15:47:54.937Z,90.30
2022-10-21T15:50:26.823Z,90.30
2022-10-21T15:55:25.864Z,90.30
2022-10-21T15:57:52.720Z,90.30
2022-10-21T16:00:22.407Z,90.30
2022-10-21T16:02:53.709Z,90.50
2022-10-21T16:05:21.509Z,90.50
2022-10-21T16:07:48.393Z,90.60
2022-10-21T16:10:22.125Z,90.60
2022-10-21T16:12:50.091Z,90.70
2022-10-21T16:15:19.200Z,90.60
2022-10-21T16:17:50.159Z,90.70
2022-10-21T16:20:21.861Z,90.70
2022-10-21T16:22:48.980Z,90.80
2022-10-21T16:25:16.046Z,90.70
2022-10-21T16:27:54.807Z,90.80
2022-10-21T16:30:35.552Z,90.90
2022-10-21T16:33:02.574Z,90.90
2022-10-21T16:35:29.472Z,90.90
2022-10-21T16:37:56.369Z,91.00
2022-10-21T16:40:28.289Z,91.00
2022-10-21T16:42:55.275Z,91.10
2022-10-21T16:45:24.341Z,91.10
2022-10-21T16:47:56.513Z,91.20
2022-10-21T16:50:43.442Z,91.20
2022-10-21T16:53:17.370Z,91.40
2022-10-21T16:55:44.259Z,91.40
2022-10-21T16:58:11.212Z,91.30
2022-10-21T17:00:38.257Z,91.30
2022-10-21T17:03:05.205Z,91.40
2022-10-21T17:05:32.193Z,91.50
2022-10-21T17:07:59.911Z,91.50
2022-10-21T17:10:27.079Z,91.50
2022-10-21T17:12:58.733Z,91.90
2022-10-21T17:15:27.191Z,91.60
2022-10-21T17:17:54.252Z,91.60
2022-10-21T17:20:21.160Z,91.70
2022-10-21T17:22:48.033Z,91.80
2022-10-21T17:25:14.918Z,91.80
2022-10-21T17:27:42.016Z,91.80
2022-10-21T17:30:09.959Z,91.90
2022-10-21T17:32:36.892Z,91.90
2022-10-21T17:35:03.879Z,92.00
2022-10-21T17:37:30.746Z,92.00
2022-10-21T17:39:57.623Z,92.00
2022-10-21T17:42:24.495Z,92.20
2022-10-21T17:44:52.675Z,92.20
2022-10-21T17:47:19.524Z,92.20
2022-10-21T17:49:46.399Z,92.20
2022-10-21T17:52:13.276Z,92.20
2022-10-21T17:54:40.161Z,92.30
2022-10-21T17:57:07.099Z,92.30
2022-10-21T17:59:33.983Z,92.30
2022-10-21T18:02:01.263Z,92.50
2022-10-21T18:04:28.659Z,92.40
2022-10-21T18:06:55.521Z,92.40
2022-10-21T18:09:22.499Z,92.40
2022-10-21T18:11:49.451Z,92.50
2022-10-21T18:14:16.461Z,92.50
2022-10-21T18:16:43.339Z,92.60
2022-10-21T18:19:10.408Z,92.60
2022-10-21T18:21:37.336Z,92.70
2022-10-21T18:24:07.436Z,92.70
2022-10-21T18:26:37.082Z,92.80
2022-10-21T18:29:05.486Z,92.80
2022-10-21T18:31:34.905Z,92.90
2022-10-21T18:34:03.996Z,93.00
2022-10-21T18:36:30.997Z,93.00
2022-10-21T18:38:59.538Z,93.00
2022-10-21T18:41:27.574Z,93.10
2022-10-21T18:44:01.590Z,93.10
2022-10-21T18:46:29.807Z,93.10
2022-10-21T18:48:57.286Z,93.10
2022-10-21T18:51:24.686Z,93.00
2022-10-21T18:53:52.960Z,93.00
2022-10-21T18:56:22.465Z,93.00
2022-10-21T18:58:50.327Z,93.00
2022-10-21T19:01:18.287Z,93.00
2022-10-21T19:03:45.264Z,93.00
2022-10-21T19:06:40.890Z,93.00
2022-10-21T19:09:14.270Z,93.00
2022-10-21T19:11:42.114Z,93.00
2022-10-21T19:14:11.402Z,92.90
2022-10-21T19:16:40.963Z,92.90
2022-10-21T19:19:08.339Z,92.90
2022-10-21T19:21:35.258Z,92.90
2022-10-21T19:24:03.838Z,92.90
2022-10-21T19:26:33.350Z,92.90
2022-10-21T19:29:07.264Z,92.90
2022-10-21T19:31:36.147Z,92.90
2022-10-21T19:34:06.578Z,92.80
2022-10-21T19:36:34.539Z,92.80
2022-10-21T19:39:01.446Z,92.80
2022-10-21T19:41:28.466Z,92.80
2022-10-21T19:43:58.435Z,92.80
2022-10-21T19:46:29.063Z,92.80
2022-10-21T19:49:03.514Z,92.90
2022-10-21T19:51:30.595Z,92.90
2022-10-21T19:53:57.847Z,92.90
2022-10-21T19:56:29.652Z,93.00
2022-10-21T19:58:58.117Z,93.10
2022-10-21T20:01:27.061Z,93.10
2022-10-21T20:03:55.240Z,93.20
2022-10-21T20:06:28.835Z,93.30
2022-10-21T20:09:09.598Z,93.30
2022-10-21T20:11:37.097Z,93.40
2022-10-21T20:14:04.988Z,93.40
2022-10-21T20:16:35.980Z,93.50
2022-10-21T20:19:05.245Z,93.50
2022-10-21T20:21:34.545Z,93.50
2022-10-21T20:24:01.529Z,93.70
2022-10-21T20:26:29.155Z,93.70
2022-10-21T20:28:57.116Z,93.70
2022-10-21T20:31:24.007Z,93.80
2022-10-21T20:33:51.808Z,93.70
2022-10-21T20:36:32.403Z,93.70
2022-10-21T20:39:01.895Z,93.80
2022-10-21T20:41:34.366Z,93.70
2022-10-21T20:44:04.215Z,93.80
2022-10-21T20:46:35.040Z,93.80
2022-10-21T20:49:07.139Z,93.80
2022-10-21T20:51:37.068Z,93.90
2022-10-21T20:54:12.155Z,93.90
2022-10-21T20:56:41.532Z,94.30
2022-10-21T20:59:11.587Z,94.10
2022-10-21T21:01:42.024Z,94.10
2022-10-21T21:04:13.667Z,94.10
2022-10-21T21:06:47.293Z,94.20
2022-10-21T21:12:06.315Z,94.10
2022-10-21T21:14:33.395Z,94.10
2022-10-21T21:17:00.264Z,94.10
2022-10-21T21:19:27.204Z,94.10
2022-10-21T21:21:54.100Z,94.10
2022-10-21T21:24:21.310Z,94.20
2022-10-21T21:26:48.191Z,94.20
2022-10-21T21:29:15.327Z,94.20
2022-10-21T21:31:42.846Z,94.20
2022-10-21T21:34:10.369Z,94.30
2022-10-21T21:36:37.812Z,94.30
2022-10-21T21:39:07.243Z,94.40
2022-10-21T21:41:35.131Z,94.40
2022-10-21T21:44:02.017Z,94.40
2022-10-21T21:46:28.877Z,94.40
2022-10-21T21:49:04.685Z,94.40
2022-10-21T21:51:34.506Z,94.50
2022-10-21T21:54:02.042Z,94.50
2022-10-21T21:56:29.109Z,94.50
2022-10-21T21:58:57.875Z,94.60
2022-10-21T22:01:28.497Z,94.60
2022-10-21T22:03:56.186Z,94.70
2022-10-21T22:09:00.579Z,94.80
2022-10-21T22:11:32.196Z,94.90
2022-10-21T22:14:00.617Z,95.00
2022-10-21T22:16:30.255Z,95.10
2022-10-21T22:19:00.048Z,95.10
2022-10-21T22:21:27.662Z,95.30
2022-10-21T22:23:54.556Z,95.20
2022-10-21T22:26:23.219Z,95.20
2022-10-21T22:28:50.155Z,95.40
2022-10-21T22:31:19.253Z,95.40
2022-10-21T22:33:46.722Z,95.40
2022-10-21T22:36:16.297Z,95.50
2022-10-21T22:38:43.907Z,95.50
2022-10-21T22:41:12.718Z,95.40
2022-10-21T22:43:40.533Z,95.50
2022-10-21T22:46:22.079Z,95.50
2022-10-21T22:48:54.480Z,95.50
2022-10-21T22:51:21.404Z,95.40
2022-10-21T22:53:53.453Z,95.50
2022-10-21T22:56:23.309Z,95.50
2022-10-21T22:58:50.213Z,95.60
2022-10-21T23:01:17.113Z,95.50
2022-10-21T23:03:43.989Z,95.50
2022-10-21T23:06:10.993Z,95.50
2022-10-21T23:08:37.953Z,95.50
2022-10-21T23:11:04.997Z,95.50
2022-10-21T23:13:31.910Z,95.50
2022-10-21T23:15:58.900Z,95.50
2022-10-21T23:18:25.760Z,95.60
2022-10-21T23:20:52.668Z,95.50
2022-10-21T23:23:19.563Z,95.60
2022-10-21T23:25:46.448Z,95.60
2022-10-21T23:28:13.365Z,95.70
2022-10-21T23:30:40.715Z,95.70
2022-10-21T23:33:07.572Z,95.80
2022-10-21T23:35:34.515Z,95.90
2022-10-21T23:38:01.466Z,95.90
2022-10-21T23:40:28.880Z,96.00
2022-10-21T23:42:55.775Z,96.00
2022-10-21T23:45:22.653Z,96.20
2022-10-21T23:47:50.091Z,96.30
2022-10-21T23:50:17.304Z,96.40
2022-10-21T23:52:44.209Z,96.30
2022-10-21T23:55:11.213Z,96.30
2022-10-21T23:57:38.299Z,96.30
